Time;durP1;ratioP1;P1;durP2;ratioP2;P2;SDS_P1;SDS_P2;PMS_P1;PMS_P2;Temp;Humidity;BMP_temperature;BMP_pressure;BME280_temperature;BME280_humidity;BME280_pressure;Samples;Min_cycle;Max_cycle;Signal;HPM_P1;HPM_P2
2022/10/26 00:02:08;;;;;;;19.60;7.47;;;11.80;99.90;;;;;;5049096;28;20111;-68
2022/10/26 00:04:34;;;;;;;20.27;6.97;;;11.90;99.90;;;;;;5050869;28;20093;-67
2022/10/26 00:06:59;;;;;;;20.20;7.05;;;11.90;99.90;;;;;;5050158;28;20025;-67
2022/10/26 00:09:25;;;;;;;15.20;6.70;;;11.90;99.90;;;;;;5049783;28;20021;-67
2022/10/26 00:11:52;;;;;;;17.83;7.80;;;11.90;99.90;;;;;;5035489;28;20026;-67
2022/10/26 00:14:17;;;;;;;16.70;7.50;;;11.90;99.90;;;;;;5031973;28;20036;-67
2022/10/26 00:16:43;;;;;;;17.17;6.90;;;12.00;99.90;;;;;;5040845;28;20025;-67
2022/10/26 00:19:08;;;;;;;20.58;7.93;;;12.00;99.90;;;;;;5031911;28;20369;-67
2022/10/26 00:21:34;;;;;;;17.63;7.80;;;12.00;99.90;;;;;;5032618;28;20113;-67
2022/10/26 00:23:59;;;;;;;19.52;6.85;;;12.10;99.90;;;;;;5031779;28;20083;-67
2022/10/26 00:26:25;;;;;;;17.88;6.78;;;12.10;99.90;;;;;;5035887;28;20029;-67
2022/10/26 00:28:56;;;;;;;19.17;7.22;;;12.10;99.90;;;;;;5032155;28;20048;-67
2022/10/26 00:31:22;;;;;;;19.90;6.25;;;12.10;99.90;;;;;;5040066;28;20025;-67
2022/10/26 00:33:54;;;;;;;17.85;6.75;;;12.20;99.90;;;;;;5040922;28;20088;-67
2022/10/26 00:36:21;;;;;;;17.88;6.50;;;12.20;99.90;;;;;;5035174;28;20029;-67
2022/10/26 00:38:48;;;;;;;17.95;6.30;;;12.20;99.90;;;;;;5035300;28;20104;-68
2022/10/26 00:41:16;;;;;;;19.27;7.97;;;12.20;99.90;;;;;;5039699;28;20029;-67
2022/10/26 00:43:42;;;;;;;14.88;6.40;;;12.30;99.90;;;;;;5045877;28;20025;-68
2022/10/26 00:46:11;;;;;;;13.82;5.88;;;12.30;99.90;;;;;;5042717;28;20032;-68
2022/10/26 00:48:42;;;;;;;18.55;6.70;;;12.30;99.90;;;;;;5052857;28;20075;-67
2022/10/26 00:51:36;;;;;;;18.95;6.65;;;12.40;99.90;;;;;;5052798;28;20338;-67
2022/10/26 00:54:06;;;;;;;18.85;8.70;;;12.40;99.90;;;;;;5033574;28;20045;-67
2022/10/26 00:56:32;;;;;;;21.95;9.93;;;12.40;99.90;;;;;;5047108;28;20445;-67
2022/10/26 00:59:02;;;;;;;21.70;7.47;;;12.30;99.90;;;;;;5054759;28;20098;-67
2022/10/26 01:01:29;;;;;;;16.33;6.82;;;12.40;99.90;;;;;;5051181;28;20051;-67
2022/10/26 01:03:55;;;;;;;14.38;6.28;;;12.30;99.90;;;;;;5047246;28;20029;-67
2022/10/26 01:06:21;;;;;;;16.27;6.88;;;12.30;99.90;;;;;;5042791;28;20048;-67
2022/10/26 01:08:48;;;;;;;16.52;6.85;;;12.30;99.90;;;;;;5053571;28;20025;-67
2022/10/26 01:11:14;;;;;;;15.13;6.43;;;12.40;99.90;;;;;;5037566;28;20025;-68
2022/10/26 01:13:42;;;;;;;19.35;8.40;;;12.40;99.90;;;;;;5034586;28;20037;-67
2022/10/26 01:16:35;;;;;;;17.23;6.70;;;12.30;99.90;;;;;;5042138;28;20037;-67
2022/10/26 01:19:12;;;;;;;20.48;7.45;;;12.40;99.90;;;;;;5034424;28;20024;-68
2022/10/26 01:22:00;;;;;;;13.63;5.95;;;12.30;99.90;;;;;;5035751;28;20109;-68
2022/10/26 01:25:01;;;;;;;16.25;6.90;;;12.30;99.90;;;;;;5050681;28;20048;-68
2022/10/26 01:27:28;;;;;;;16.38;6.82;;;12.40;99.90;;;;;;5054705;28;20032;-67
2022/10/26 01:30:19;;;;;;;16.33;6.63;;;12.30;99.90;;;;;;5052988;28;20037;-68
2022/10/26 01:33:19;;;;;;;17.05;7.40;;;12.40;99.90;;;;;;5039220;28;20759;-68
2022/10/26 01:35:50;;;;;;;18.50;6.35;;;12.40;99.90;;;;;;5049190;28;20064;-68
2022/10/26 01:38:31;;;;;;;18.65;7.47;;;12.40;99.90;;;;;;5038976;28;20461;-68
2022/10/26 01:41:09;;;;;;;13.50;5.93;;;12.40;99.90;;;;;;5036025;28;20120;-67
2022/10/26 01:43:40;;;;;;;14.50;6.10;;;12.50;99.90;;;;;;5036594;28;20294;-68
2022/10/26 01:46:08;;;;;;;15.13;6.32;;;12.50;99.90;;;;;;5044741;28;20032;-68
2022/10/26 01:48:36;;;;;;;13.90;6.68;;;12.50;99.90;;;;;;5042054;28;20033;-68
2022/10/26 01:51:05;;;;;;;17.50;6.65;;;12.50;99.90;;;;;;5054162;28;20334;-68
2022/10/26 01:53:30;;;;;;;15.80;6.28;;;12.50;99.90;;;;;;5058745;28;20349;-68
2022/10/26 01:55:57;;;;;;;15.38;6.72;;;12.50;99.90;;;;;;5055495;28;20082;-68
2022/10/26 01:58:41;;;;;;;17.40;6.70;;;12.50;99.90;;;;;;5058774;28;20051;-68
2022/10/26 02:01:33;;;;;;;18.73;7.72;;;12.50;99.90;;;;;;5058256;28;20017;-68
2022/10/26 02:04:15;;;;;;;15.23;6.40;;;12.50;99.90;;;;;;5062923;28;20024;-67
2022/10/26 02:06:59;;;;;;;19.00;7.25;;;12.50;99.90;;;;;;5059649;28;20032;-69
2022/10/26 02:09:44;;;;;;;21.27;7.90;;;12.50;99.90;;;;;;5059408;28;20079;-68
2022/10/26 02:12:20;;;;;;;15.50;6.88;;;12.50;99.90;;;;;;5055541;28;20030;-68
2022/10/26 02:14:54;;;;;;;14.10;6.20;;;12.60;99.90;;;;;;5059327;28;20041;-67
2022/10/26 02:17:33;;;;;;;12.07;5.95;;;12.50;99.90;;;;;;5060338;28;20037;-68
2022/10/26 02:20:03;;;;;;;14.13;6.07;;;12.60;99.90;;;;;;5054739;28;20531;-68
2022/10/26 02:22:34;;;;;;;14.65;6.45;;;12.60;99.90;;;;;;5057638;28;20021;-68
2022/10/26 02:25:06;;;;;;;14.53;6.00;;;12.60;99.90;;;;;;5059055;28;20062;-67
2022/10/26 02:27:36;;;;;;;13.33;5.83;;;12.60;99.90;;;;;;5059482;28;20021;-68
2022/10/26 02:30:03;;;;;;;13.32;6.00;;;12.60;99.90;;;;;;5059918;28;20045;-68
2022/10/26 02:32:33;;;;;;;14.25;6.13;;;12.70;99.90;;;;;;5056117;28;20017;-67
2022/10/26 02:35:01;;;;;;;15.25;6.43;;;12.60;99.90;;;;;;5057264;28;20036;-67
2022/10/26 02:37:29;;;;;;;17.70;6.75;;;12.70;99.90;;;;;;5058855;28;20044;-68
2022/10/26 02:39:56;;;;;;;18.13;7.70;;;12.70;99.90;;;;;;5059481;28;20052;-67
2022/10/26 02:42:23;;;;;;;13.93;5.90;;;12.80;99.90;;;;;;5062084;28;20099;-68
2022/10/26 02:44:53;;;;;;;14.00;6.03;;;12.80;99.90;;;;;;5058839;28;20045;-68
2022/10/26 02:47:20;;;;;;;13.68;6.57;;;12.80;99.90;;;;;;5058838;28;20028;-67
2022/10/26 02:49:46;;;;;;;14.60;5.75;;;12.80;99.90;;;;;;5060528;28;20033;-67
2022/10/26 02:52:31;;;;;;;11.85;5.63;;;12.90;99.90;;;;;;5055566;28;20036;-67
2022/10/26 02:55:06;;;;;;;14.55;5.85;;;12.90;99.90;;;;;;5057664;28;20031;-67
2022/10/26 02:57:31;;;;;;;16.00;6.00;;;12.90;99.90;;;;;;5057151;28;20112;-68
2022/10/26 02:59:58;;;;;;;14.18;5.82;;;13.00;99.90;;;;;;5061864;28;20100;-67
2022/10/26 03:02:24;;;;;;;13.07;5.65;;;13.00;99.90;;;;;;5059098;28;20035;-67
2022/10/26 03:04:50;;;;;;;13.27;5.70;;;13.10;99.90;;;;;;5062033;28;20048;-67
2022/10/26 03:07:25;;;;;;;16.55;6.20;;;13.10;99.90;;;;;;5052825;28;20067;-68
2022/10/26 03:09:50;;;;;;;13.98;6.03;;;13.10;99.90;;;;;;5062024;28;20033;-67
2022/10/26 03:12:16;;;;;;;14.23;5.97;;;13.10;99.90;;;;;;5059809;28;20039;-67
2022/10/26 03:14:42;;;;;;;13.32;5.20;;;13.10;99.90;;;;;;5060937;28;20098;-67
2022/10/26 03:17:07;;;;;;;13.55;5.60;;;13.20;99.90;;;;;;5058857;28;20076;-67
2022/10/26 03:19:33;;;;;;;16.02;6.75;;;13.10;99.90;;;;;;5061420;28;20025;-67
2022/10/26 03:21:58;;;;;;;13.85;6.10;;;13.20;99.90;;;;;;5059269;28;20088;-67
2022/10/26 03:24:24;;;;;;;14.20;5.93;;;13.20;99.90;;;;;;5060349;28;20036;-67
2022/10/26 03:26:49;;;;;;;13.70;6.13;;;13.20;99.90;;;;;;5059646;28;20039;-66
2022/10/26 03:29:15;;;;;;;16.33;5.63;;;13.20;99.90;;;;;;5056855;28;20064;-67
2022/10/26 03:31:40;;;;;;;14.20;5.22;;;13.20;99.90;;;;;;5059857;28;20052;-66
2022/10/26 03:34:06;;;;;;;13.55;5.55;;;13.30;99.90;;;;;;5060150;28;20064;-66
2022/10/26 03:36:32;;;;;;;16.73;6.10;;;13.30;99.90;;;;;;5057692;28;20036;-67
2022/10/26 03:38:58;;;;;;;15.30;5.40;;;13.30;99.90;;;;;;5055203;28;20491;-67
2022/10/26 03:41:23;;;;;;;13.98;5.80;;;13.30;99.90;;;;;;5058781;28;20052;-66
2022/10/26 03:43:49;;;;;;;16.13;5.65;;;13.40;99.90;;;;;;5071049;28;20049;-68
2022/10/26 03:46:15;;;;;;;15.55;6.13;;;13.40;99.90;;;;;;5060375;28;20116;-67
2022/10/26 03:48:40;;;;;;;11.43;4.93;;;13.40;99.90;;;;;;5035758;28;20031;-67
2022/10/26 03:51:06;;;;;;;16.05;5.47;;;13.40;99.90;;;;;;5032686;28;20087;-68
2022/10/26 03:53:31;;;;;;;17.92;6.30;;;13.40;99.90;;;;;;5051541;28;20033;-68
2022/10/26 03:55:57;;;;;;;13.77;5.38;;;13.40;99.90;;;;;;5032084;28;20045;-67
2022/10/26 03:58:22;;;;;;;11.25;5.60;;;13.40;99.90;;;;;;5035259;28;20027;-67
2022/10/26 04:00:48;;;;;;;15.80;5.22;;;13.40;99.90;;;;;;5042599;28;20357;-67
2022/10/26 04:03:14;;;;;;;12.05;5.00;;;13.40;99.90;;;;;;5033452;28;20104;-67
2022/10/26 04:05:39;;;;;;;15.00;5.63;;;13.40;99.90;;;;;;5051615;28;20453;-67
2022/10/26 04:08:05;;;;;;;15.32;5.22;;;13.50;99.90;;;;;;5038729;28;20063;-67
2022/10/26 04:10:31;;;;;;;11.82;5.35;;;13.50;99.90;;;;;;5036038;28;20098;-67
2022/10/26 04:13:00;;;;;;;14.98;5.63;;;13.50;99.90;;;;;;5051159;28;20029;-67
2022/10/26 04:15:26;;;;;;;11.98;5.63;;;13.50;99.90;;;;;;5046983;28;20156;-67
2022/10/26 04:17:57;;;;;;;12.70;5.18;;;13.50;99.90;;;;;;5055434;28;20035;-67
2022/10/26 04:20:23;;;;;;;14.63;5.40;;;13.60;99.90;;;;;;5054051;28;20032;-67
2022/10/26 04:22:57;;;;;;;9.60;4.38;;;13.60;99.90;;;;;;5055678;28;20021;-67
2022/10/26 04:25:22;;;;;;;9.93;4.65;;;13.60;99.90;;;;;;5036117;28;20030;-67
2022/10/26 04:27:48;;;;;;;10.55;4.90;;;13.60;99.90;;;;;;5048308;28;20078;-67
2022/10/26 04:30:13;;;;;;;12.95;5.45;;;13.60;99.90;;;;;;5050452;28;20069;-67
2022/10/26 04:32:39;;;;;;;15.40;4.90;;;13.60;99.90;;;;;;5036018;28;20103;-68
2022/10/26 04:35:05;;;;;;;11.55;5.60;;;13.60;99.90;;;;;;5055384;28;20033;-68
2022/10/26 04:37:30;;;;;;;14.13;5.00;;;13.60;99.90;;;;;;5054336;28;20025;-67
2022/10/26 04:39:56;;;;;;;15.00;5.55;;;13.60;99.90;;;;;;5035530;28;20029;-67
2022/10/26 04:42:21;;;;;;;11.40;5.20;;;13.60;99.90;;;;;;5054240;28;20032;-67
2022/10/26 04:44:47;;;;;;;11.40;4.60;;;13.60;99.90;;;;;;5038574;28;20056;-67
2022/10/26 04:47:12;;;;;;;12.60;4.43;;;13.60;99.90;;;;;;5037496;28;20045;-67
2022/10/26 04:49:38;;;;;;;16.98;5.38;;;13.60;99.90;;;;;;5035659;28;20025;-67
2022/10/26 04:52:05;;;;;;;13.63;5.53;;;13.60;99.90;;;;;;5035226;28;20083;-67
2022/10/26 04:54:30;;;;;;;11.40;4.65;;;13.70;99.90;;;;;;5035116;28;20045;-67
2022/10/26 04:56:56;;;;;;;9.60;4.43;;;13.70;99.90;;;;;;5036197;28;20022;-67
2022/10/26 04:59:21;;;;;;;16.30;5.25;;;13.70;99.90;;;;;;5053020;28;20025;-67
2022/10/26 05:01:47;;;;;;;10.65;4.70;;;13.80;99.90;;;;;;5042846;28;20032;-66
2022/10/26 05:04:12;;;;;;;10.60;4.57;;;13.80;99.90;;;;;;5043497;28;20050;-67
2022/10/26 05:06:38;;;;;;;16.25;5.32;;;13.80;99.90;;;;;;5049414;28;20025;-67
2022/10/26 05:09:04;;;;;;;10.90;4.95;;;13.90;99.90;;;;;;5034684;28;20108;-67
2022/10/26 05:11:29;;;;;;;17.55;7.78;;;13.90;99.90;;;;;;5038210;28;20063;-67
2022/10/26 05:13:55;;;;;;;15.40;4.75;;;13.90;99.90;;;;;;5054582;28;20368;-67
2022/10/26 05:16:20;;;;;;;10.75;4.70;;;13.90;99.90;;;;;;5051657;28;20098;-67
2022/10/26 05:18:49;;;;;;;16.50;5.00;;;13.90;99.90;;;;;;5052299;28;20032;-67
2022/10/26 05:21:18;;;;;;;11.50;4.63;;;14.00;99.90;;;;;;5052718;28;20029;-68
2022/10/26 05:23:52;;;;;;;11.23;4.70;;;14.00;99.90;;;;;;5054594;28;20047;-67
2022/10/26 05:26:19;;;;;;;8.60;4.00;;;14.00;99.90;;;;;;5039784;28;20025;-67
2022/10/26 05:28:44;;;;;;;9.95;4.07;;;14.00;99.90;;;;;;5039733;28;20041;-67
2022/10/26 05:31:10;;;;;;;11.85;4.88;;;14.00;99.90;;;;;;5044253;28;20116;-68
2022/10/26 05:33:36;;;;;;;9.70;4.68;;;14.00;99.90;;;;;;5038692;28;20041;-67
2022/10/26 05:36:02;;;;;;;10.85;4.80;;;14.00;99.90;;;;;;5053947;28;20025;-67
2022/10/26 05:38:27;;;;;;;14.40;4.40;;;14.10;99.90;;;;;;5049820;28;20021;-67
2022/10/26 05:40:53;;;;;;;11.23;4.93;;;14.10;99.90;;;;;;5035475;28;20889;-68
2022/10/26 05:43:20;;;;;;;11.10;4.07;;;14.10;99.90;;;;;;5036091;28;20033;-67
2022/10/26 05:45:48;;;;;;;12.88;4.70;;;14.10;99.90;;;;;;5043256;28;20021;-68
2022/10/26 05:48:13;;;;;;;14.18;4.60;;;14.10;99.90;;;;;;5046550;28;20066;-67
2022/10/26 05:50:39;;;;;;;8.50;4.13;;;14.10;99.90;;;;;;5037969;28;20110;-67
2022/10/26 05:53:05;;;;;;;11.85;3.80;;;14.10;99.90;;;;;;5033986;28;20028;-67
2022/10/26 05:55:31;;;;;;;10.02;4.13;;;14.10;99.90;;;;;;5047571;28;20063;-67
2022/10/26 05:57:57;;;;;;;8.90;4.72;;;14.10;99.90;;;;;;5049443;28;20103;-67
2022/10/26 06:00:25;;;;;;;14.77;4.97;;;14.10;99.90;;;;;;5036948;28;20032;-68
2022/10/26 06:03:25;;;;;;;8.93;3.83;;;14.00;99.90;;;;;;5053452;28;20449;-67
2022/10/26 06:05:55;;;;;;;10.98;4.93;;;14.00;99.90;;;;;;5046829;28;20036;-68
2022/10/26 06:08:23;;;;;;;9.98;4.55;;;13.90;99.90;;;;;;5044026;28;20025;-68
2022/10/26 06:10:49;;;;;;;13.63;4.65;;;13.80;99.90;;;;;;5034605;28;20033;-67
2022/10/26 06:13:15;;;;;;;11.07;4.45;;;13.80;99.90;;;;;;5033389;28;20069;-67
2022/10/26 06:16:17;;;;;;;8.90;4.40;;;13.80;99.90;;;;;;5044920;28;20029;-67
2022/10/26 06:19:05;;;;;;;12.57;4.80;;;13.70;99.90;;;;;;5034920;28;20485;-67
2022/10/26 06:21:55;;;;;;;15.68;5.13;;;13.70;99.90;;;;;;5059962;28;20049;-67
2022/10/26 06:24:46;;;;;;;13.57;4.85;;;13.60;99.90;;;;;;5050664;28;20017;-67
2022/10/26 06:27:17;;;;;;;14.45;5.57;;;13.60;99.90;;;;;;5033536;28;20026;-66
2022/10/26 06:29:53;;;;;;;12.00;4.75;;;13.60;99.90;;;;;;5032848;28;20045;-67
2022/10/26 06:32:23;;;;;;;9.07;4.20;;;13.50;99.90;;;;;;5033479;28;20037;-66
2022/10/26 06:34:56;;;;;;;12.77;4.97;;;13.50;99.90;;;;;;5033063;28;20033;-67
2022/10/26 06:37:23;;;;;;;13.95;5.20;;;13.50;99.90;;;;;;5042572;28;20480;-66
2022/10/26 06:39:49;;;;;;;7.95;4.30;;;13.40;99.90;;;;;;5052831;28;20017;-67
2022/10/26 06:42:16;;;;;;;12.98;4.60;;;13.40;99.90;;;;;;5052944;28;20085;-67
2022/10/26 06:44:42;;;;;;;14.68;4.78;;;13.40;99.90;;;;;;5052403;28;20140;-67
2022/10/26 06:47:37;;;;;;;12.70;4.72;;;13.40;99.90;;;;;;5052344;28;20117;-68
2022/10/26 06:50:34;;;;;;;13.40;5.20;;;13.40;99.90;;;;;;5052808;28;20461;-67
2022/10/26 06:53:09;;;;;;;9.10;4.40;;;13.40;99.90;;;;;;5049644;28;20045;-67
2022/10/26 06:55:43;;;;;;;15.27;5.60;;;13.40;99.90;;;;;;5052612;28;20025;-67
2022/10/26 06:58:19;;;;;;;16.88;5.35;;;13.40;99.90;;;;;;5052534;28;20112;-67
2022/10/26 07:00:48;;;;;;;11.23;4.78;;;13.40;99.90;;;;;;5052407;28;20025;-67
2022/10/26 07:03:14;;;;;;;11.93;4.85;;;13.50;99.90;;;;;;5052663;28;20063;-67
2022/10/26 07:05:39;;;;;;;13.05;5.53;;;13.50;99.90;;;;;;5052095;28;20056;-67
2022/10/26 07:08:05;;;;;;;10.45;4.20;;;13.60;99.90;;;;;;5052778;28;20437;-67
2022/10/26 07:10:31;;;;;;;10.68;4.55;;;13.80;99.90;;;;;;5052556;28;20021;-67
2022/10/26 07:12:56;;;;;;;12.15;4.63;;;13.80;99.90;;;;;;5050636;28;20033;-67
2022/10/26 07:15:22;;;;;;;10.65;4.80;;;13.90;99.90;;;;;;5032467;28;20105;-67
2022/10/26 07:17:48;;;;;;;11.20;4.43;;;14.00;99.90;;;;;;5032376;28;20120;-67
2022/10/26 07:20:16;;;;;;;9.02;4.00;;;14.10;99.90;;;;;;5032695;28;20407;-67
2022/10/26 07:22:42;;;;;;;10.73;3.75;;;14.10;99.90;;;;;;5032646;28;20341;-68
2022/10/26 07:25:08;;;;;;;8.02;3.78;;;14.10;99.90;;;;;;5032544;28;20036;-67
2022/10/26 07:27:34;;;;;;;9.70;3.50;;;14.10;99.90;;;;;;5032502;28;20064;-68
2022/10/26 07:30:01;;;;;;;8.30;3.75;;;14.10;99.90;;;;;;5031766;28;20081;-67
2022/10/26 07:32:26;;;;;;;11.80;4.00;;;14.10;99.90;;;;;;5046859;28;20079;-67
2022/10/26 07:34:52;;;;;;;9.50;3.88;;;14.10;99.90;;;;;;5051950;28;20049;-67
2022/10/26 07:37:17;;;;;;;12.00;3.63;;;14.20;99.90;;;;;;5052185;28;20021;-67
2022/10/26 07:39:43;;;;;;;12.40;4.15;;;14.40;99.90;;;;;;5052071;28;20119;-67
2022/10/26 07:42:08;;;;;;;8.15;3.22;;;14.40;99.90;;;;;;5055128;28;20028;-67
2022/10/26 07:44:34;;;;;;;7.72;3.55;;;14.50;99.90;;;;;;5056211;28;20111;-67
2022/10/26 07:46:59;;;;;;;14.07;3.85;;;14.60;99.90;;;;;;5055135;28;20032;-68
2022/10/26 07:49:25;;;;;;;13.45;4.00;;;14.60;99.90;;;;;;5062735;28;20028;-67
2022/10/26 07:51:51;;;;;;;8.32;3.58;;;14.70;99.90;;;;;;5076463;28;20066;-67
2022/10/26 07:54:16;;;;;;;9.30;3.42;;;14.80;99.90;;;;;;5076360;28;20429;-67
2022/10/26 07:56:42;;;;;;;8.57;4.38;;;14.80;99.90;;;;;;5076390;28;20058;-67
2022/10/26 07:59:10;;;;;;;9.63;3.80;;;14.90;99.90;;;;;;5076421;28;20099;-67
2022/10/26 08:01:35;;;;;;;8.13;3.90;;;15.00;99.90;;;;;;5076339;28;20116;-67
2022/10/26 08:04:01;;;;;;;10.13;3.28;;;15.00;99.90;;;;;;5076294;28;20108;-67
2022/10/26 08:06:26;;;;;;;10.02;3.60;;;15.20;99.90;;;;;;5075760;28;20027;-68
2022/10/26 08:08:52;;;;;;;8.43;3.90;;;15.30;99.90;;;;;;5076088;28;20020;-67
2022/10/26 08:11:18;;;;;;;5.93;3.10;;;15.40;99.90;;;;;;5075811;28;20468;-67
2022/10/26 08:13:43;;;;;;;10.95;3.47;;;15.50;99.90;;;;;;5075962;28;20036;-67
2022/10/26 08:16:10;;;;;;;5.75;3.28;;;15.60;99.90;;;;;;5075964;28;20461;-67
2022/10/26 08:18:35;;;;;;;11.88;3.67;;;15.60;99.90;;;;;;5075841;28;20016;-68
2022/10/26 08:21:04;;;;;;;10.55;4.03;;;15.60;99.90;;;;;;5075432;28;20025;-68
2022/10/26 08:23:30;;;;;;;7.80;3.75;;;15.70;99.90;;;;;;5075279;28;20029;-68
2022/10/26 08:26:00;;;;;;;9.52;3.90;;;15.80;99.90;;;;;;5075685;28;20792;-68
2022/10/26 08:28:26;;;;;;;9.70;3.83;;;15.80;99.90;;;;;;5075607;28;20044;-68
2022/10/26 08:30:52;;;;;;;9.48;3.33;;;15.80;99.90;;;;;;5075673;28;20477;-68
2022/10/26 08:33:17;;;;;;;8.20;3.67;;;15.80;99.90;;;;;;5075408;28;20032;-68
2022/10/26 08:35:43;;;;;;;7.65;3.00;;;16.00;99.90;;;;;;5075178;28;20154;-68
2022/10/26 08:38:08;;;;;;;6.35;3.13;;;16.30;99.90;;;;;;5075523;28;20103;-68
2022/10/26 08:40:39;;;;;;;9.85;4.10;;;16.50;99.90;;;;;;5060751;28;20021;-68
2022/10/26 08:43:28;;;;;;;6.63;3.38;;;16.80;99.90;;;;;;5054848;28;20029;-68
2022/10/26 08:46:03;;;;;;;10.65;3.25;;;17.20;99.90;;;;;;5055221;28;20094;-68
2022/10/26 08:48:36;;;;;;;10.77;3.95;;;17.50;99.90;;;;;;5055343;28;20100;-68
2022/10/26 08:51:09;;;;;;;7.45;3.30;;;17.90;99.90;;;;;;5055186;28;20041;-68
2022/10/26 08:54:12;;;;;;;8.13;3.45;;;18.50;99.90;;;;;;5053768;28;20037;-68
2022/10/26 08:56:46;;;;;;;7.25;3.22;;;19.10;99.90;;;;;;5042245;28;20112;-68
2022/10/26 08:59:34;;;;;;;10.95;3.47;;;19.60;99.90;;;;;;5073449;28;20052;-68
2022/10/26 09:02:01;;;;;;;6.60;3.17;;;19.80;99.90;;;;;;5055036;28;20028;-68
2022/10/26 09:04:29;;;;;;;6.88;3.47;;;20.10;99.90;;;;;;5054937;28;20032;-68
2022/10/26 09:07:01;;;;;;;9.38;2.85;;;20.40;99.90;;;;;;5053455;28;20028;-68
2022/10/26 09:09:41;;;;;;;7.70;2.83;;;20.50;99.90;;;;;;5054908;28;20033;-69
2022/10/26 09:12:28;;;;;;;7.68;2.70;;;20.60;99.90;;;;;;5050614;28;20033;-68
2022/10/26 09:15:10;;;;;;;8.45;2.67;;;20.30;99.90;;;;;;5055158;28;20164;-68
2022/10/26 09:18:08;;;;;;;;;;;20.10;99.90;;;;;;5053578;28;20027;-68
2022/10/26 09:21:06;;;;;;;7.50;2.85;;;20.10;99.90;;;;;;5030779;28;19901;-68
2022/10/26 09:24:12;;;;;;;9.00;3.42;;;20.30;99.90;;;;;;5034826;28;20032;-67
2022/10/26 09:26:53;;;;;;;9.73;3.45;;;20.30;99.90;;;;;;5047891;28;20028;-67
2022/10/26 09:29:25;;;;;;;9.13;3.17;;;20.40;99.90;;;;;;5058094;28;20050;-67
2022/10/26 09:31:50;;;;;;;7.40;3.05;;;20.40;99.90;;;;;;5062525;28;20052;-67
2022/10/26 09:34:31;;;;;;;10.30;3.30;;;20.40;99.90;;;;;;5053216;28;20465;-67
2022/10/26 09:36:57;;;;;;;3.97;2.90;;;20.40;99.90;;;;;;5053873;28;20025;-67
2022/10/26 09:39:51;;;;;;;9.85;3.42;;;20.50;99.90;;;;;;5053828;28;20082;-68
2022/10/26 09:42:33;;;;;;;8.68;3.50;;;20.60;99.90;;;;;;5050807;28;20033;-67
2022/10/26 09:45:17;;;;;;;10.43;3.63;;;20.70;99.90;;;;;;5033919;28;20036;-67
2022/10/26 09:47:50;;;;;;;6.50;3.08;;;20.90;99.90;;;;;;5042037;28;20087;-68
2022/10/26 09:50:22;;;;;;;9.60;3.08;;;21.00;99.90;;;;;;5053538;28;20070;-67
2022/10/26 09:52:48;;;;;;;9.95;3.42;;;21.10;99.90;;;;;;5043496;28;20033;-67
2022/10/26 09:55:14;;;;;;;10.85;3.25;;;21.30;99.90;;;;;;5033819;28;20049;-67
2022/10/26 09:57:44;;;;;;;9.10;3.10;;;21.50;99.90;;;;;;5041250;28;20025;-67
2022/10/26 10:00:18;;;;;;;15.98;5.70;;;21.80;99.90;;;;;;5039623;28;20070;-67
2022/10/26 10:02:55;;;;;;;8.93;3.58;;;22.00;99.90;;;;;;5042355;28;20429;-68
2022/10/26 10:05:28;;;;;;;10.07;3.78;;;22.40;99.90;;;;;;5056618;28;20514;-67
2022/10/26 10:08:10;;;;;;;10.68;3.60;;;22.80;99.90;;;;;;5058952;28;20104;-68
2022/10/26 10:10:36;;;;;;;;;;;23.20;99.90;;;;;;5061579;28;20112;-67
2022/10/26 10:13:15;;;;;;;14.93;6.40;;;23.20;99.90;;;;;;5063146;28;19940;-67
2022/10/26 10:15:51;;;;;;;20.13;9.93;;;23.10;99.90;;;;;;5059480;28;20103;-67
2022/10/26 10:18:20;;;;;;;15.05;7.85;;;23.00;99.90;;;;;;5055114;28;20025;-67
2022/10/26 10:21:05;;;;;;;15.32;5.90;;;22.80;99.90;;;;;;5058886;28;20079;-67
2022/10/26 10:23:52;;;;;;;15.13;4.13;;;22.70;99.90;;;;;;5054444;28;20520;-67
2022/10/26 10:26:18;;;;;;;14.05;4.72;;;22.60;99.90;;;;;;5057940;28;20344;-68
2022/10/26 10:28:58;;;;;;;6.75;2.55;;;22.20;99.90;;;;;;5062641;28;20052;-67
2022/10/26 10:31:29;;;;;;;11.65;3.15;;;21.70;99.90;;;;;;5049998;28;20494;-68
2022/10/26 10:33:55;;;;;;;8.20;3.00;;;21.20;99.90;;;;;;5059473;28;20033;-68
2022/10/26 10:36:28;;;;;;;7.40;2.55;;;21.00;99.90;;;;;;5056722;28;20068;-68
2022/10/26 10:38:56;;;;;;;7.18;2.55;;;20.90;99.90;;;;;;5062542;28;20023;-68
2022/10/26 10:41:36;;;;;;;11.38;3.10;;;20.70;99.90;;;;;;5059127;28;20033;-68
2022/10/26 10:44:07;;;;;;;6.72;2.60;;;20.40;99.90;;;;;;5060268;28;20013;-68
2022/10/26 10:46:36;;;;;;;5.50;2.15;;;20.30;99.90;;;;;;5056086;28;20047;-68
2022/10/26 10:49:05;;;;;;;11.63;2.67;;;20.20;99.90;;;;;;5057219;28;20032;-67
2022/10/26 10:51:38;;;;;;;9.70;2.60;;;20.40;99.90;;;;;;5059123;28;20031;-68
2022/10/26 10:54:10;;;;;;;8.70;2.10;;;20.70;99.90;;;;;;5060222;28;20032;-67
2022/10/26 10:56:47;;;;;;;7.88;2.40;;;20.80;99.90;;;;;;5061879;28;20098;-67
2022/10/26 10:59:42;;;;;;;4.53;2.17;;;20.80;99.90;;;;;;5056692;28;20112;-66
2022/10/26 11:02:21;;;;;;;5.32;2.17;;;20.70;99.90;;;;;;5058294;28;20082;-67
2022/10/26 11:05:07;;;;;;;6.95;2.08;;;20.60;99.90;;;;;;5060969;28;20464;-67
2022/10/26 11:07:45;;;;;;;7.80;2.30;;;20.60;99.90;;;;;;5060625;28;20037;-67
2022/10/26 11:10:15;;;;;;;11.68;2.35;;;20.60;99.90;;;;;;5063708;28;20103;-66
2022/10/26 11:12:50;;;;;;;8.27;2.08;;;20.70;99.90;;;;;;5052509;28;20029;-67
2022/10/26 11:15:21;;;;;;;11.23;2.05;;;20.90;99.90;;;;;;5050636;28;20033;-67
2022/10/26 11:17:59;;;;;;;7.05;1.92;;;21.10;99.90;;;;;;5052086;28;20368;-68
2022/10/26 11:20:44;;;;;;;4.65;2.10;;;21.40;99.90;;;;;;5052027;28;20095;-68
2022/10/26 11:23:39;;;;;;;5.07;1.90;;;21.70;99.90;;;;;;5049910;28;20025;-68
2022/10/26 11:26:16;;;;;;;7.18;2.10;;;22.00;99.90;;;;;;5050820;28;20098;-68
2022/10/26 11:28:51;;;;;;;9.02;1.85;;;22.50;99.90;;;;;;5051594;28;20542;-67
2022/10/26 11:31:24;;;;;;;7.22;1.95;;;22.60;99.90;;;;;;5051531;28;20036;-68
2022/10/26 11:34:22;;;;;;;8.70;1.90;;;22.90;99.90;;;;;;5052353;28;20143;-68
2022/10/26 11:36:54;;;;;;;6.00;1.90;;;22.90;99.90;;;;;;5043823;28;20033;-67
2022/10/26 11:39:34;;;;;;;7.03;1.70;;;22.70;99.90;;;;;;5052254;28;20025;-68
2022/10/26 11:42:24;;;;;;;9.30;2.20;;;22.50;99.90;;;;;;5052355;28;20033;-68
2022/10/26 11:45:03;;;;;;;5.10;1.75;;;22.50;99.90;;;;;;5052160;28;20041;-67
2022/10/26 11:47:40;;;;;;;5.07;1.60;;;22.70;99.90;;;;;;5052011;28;20078;-68
2022/10/26 11:50:20;;;;;;;8.38;1.73;;;22.80;99.90;;;;;;5052344;28;20029;-67
2022/10/26 11:52:48;;;;;;;9.38;1.95;;;22.90;99.90;;;;;;5051754;28;20056;-67
2022/10/26 11:55:14;;;;;;;7.03;1.92;;;22.90;99.90;;;;;;5052123;28;20033;-68
2022/10/26 11:57:40;;;;;;;11.73;2.17;;;23.10;99.90;;;;;;5052385;28;20032;-67
2022/10/26 12:00:16;;;;;;;8.07;2.08;;;23.20;99.90;;;;;;5052334;28;20449;-68
2022/10/26 12:02:56;;;;;;;8.35;2.17;;;23.10;99.90;;;;;;5051809;28;20021;-68
2022/10/26 12:05:38;;;;;;;9.05;1.90;;;22.90;99.90;;;;;;5042641;28;20408;-67
2022/10/26 12:08:37;;;;;;;10.70;1.95;;;22.60;99.90;;;;;;5031677;28;20729;-68
2022/10/26 12:11:45;;;;;;;11.30;2.30;;;22.20;99.90;;;;;;5048164;28;20052;-67
2022/10/26 12:14:26;;;;;;;14.13;2.20;;;21.80;99.90;;;;;;5052131;28;20091;-67
2022/10/26 12:17:03;;;;;;;6.78;2.00;;;21.80;99.90;;;;;;5050965;28;20047;-67
2022/10/26 12:19:37;;;;;;;11.77;2.00;;;22.20;99.90;;;;;;5051858;28;20484;-67
2022/10/26 12:22:03;;;;;;;10.57;2.13;;;22.20;99.90;;;;;;5045350;28;20021;-67
2022/10/26 12:24:34;;;;;;;11.10;2.67;;;22.40;99.90;;;;;;5031918;28;20471;-67
2022/10/26 12:27:05;;;;;;;6.20;2.05;;;22.70;99.90;;;;;;5033113;28;20030;-67
2022/10/26 12:29:30;;;;;;;8.43;1.92;;;22.90;99.90;;;;;;5035429;28;20053;-67
2022/10/26 12:31:56;;;;;;;6.72;1.83;;;22.90;99.90;;;;;;5035832;28;20105;-67
2022/10/26 12:34:31;;;;;;;8.82;1.95;;;23.10;99.90;;;;;;5035404;28;20487;-68
2022/10/26 12:36:56;;;;;;;10.02;2.00;;;23.20;99.90;;;;;;5035707;28;20067;-67
2022/10/26 12:39:39;;;;;;;10.52;2.13;;;23.50;99.90;;;;;;5035614;28;20021;-67
2022/10/26 12:42:05;;;;;;;11.27;1.98;;;23.60;99.90;;;;;;5035662;28;20037;-67
2022/10/26 12:44:44;;;;;;;7.82;2.33;;;23.70;99.90;;;;;;5035558;28;20436;-68
2022/10/26 12:47:28;;;;;;;7.63;2.10;;;23.60;99.90;;;;;;5037616;28;20037;-68
2022/10/26 12:50:00;;;;;;;8.23;2.00;;;23.50;99.90;;;;;;5055327;28;20059;-67
2022/10/26 12:52:34;;;;;;;4.55;1.73;;;23.30;99.90;;;;;;5055368;28;20460;-67
2022/10/26 12:55:02;;;;;;;8.82;2.10;;;23.10;99.90;;;;;;5055198;28;20457;-67
2022/10/26 12:57:40;;;;;;;7.45;2.03;;;22.90;99.90;;;;;;5054837;28;20029;-67
2022/10/26 13:00:11;;;;;;;7.80;1.77;;;22.90;99.90;;;;;;5055224;28;20049;-67
2022/10/26 13:03:31;;;;;;;10.18;1.95;;;22.80;99.90;;;;;;5055256;28;20083;-67
2022/10/26 13:06:27;;;;;;;11.55;1.98;;;22.50;99.90;;;;;;5012795;28;20026;-67